createdAt,value
2023-12-24T00:00:31.608Z,100212.06
2023-12-24T00:05:58.359Z,100219.34
2023-12-24T00:11:02.302Z,100226.38
2023-12-24T00:16:07.613Z,100230.94
2023-12-24T00:21:14.202Z,100240.66
2023-12-24T00:26:17.750Z,100253.44
2023-12-24T00:31:23.980Z,100258.56
2023-12-24T00:36:27.860Z,100263.34
2023-12-24T00:41:32.441Z,100263.25
2023-12-24T00:46:37.593Z,100258.44
2023-12-24T00:51:44.128Z,100261.16
2023-12-24T00:56:47.592Z,100262.53
2023-12-24T01:01:52.485Z,100260.78
2023-12-24T01:06:55.962Z,100264.56
2023-12-24T01:11:59.420Z,100262.63
2023-12-24T01:17:04.700Z,100259.22
2023-12-24T01:22:08.234Z,100256.28
2023-12-24T01:27:11.828Z,100262.25
2023-12-24T01:32:16.887Z,100271.38
2023-12-24T01:37:20.426Z,100266.22
2023-12-24T01:42:23.909Z,100263.19
2023-12-24T01:47:29.426Z,100255.44
2023-12-24T01:52:33.200Z,100256.34
2023-12-24T01:57:37.380Z,100246.03
2023-12-24T02:02:42.371Z,100237.34
2023-12-24T02:07:49.368Z,100239.22
2023-12-24T02:12:53.160Z,100244.38
2023-12-24T02:18:00.510Z,100236.44
2023-12-24T02:23:05.785Z,100229.94
2023-12-24T02:28:17.130Z,100219.56
2023-12-24T02:33:22.711Z,100217.09
2023-12-24T02:38:27.896Z,100217.94
2023-12-24T02:43:31.400Z,100226.53
2023-12-24T02:48:34.896Z,100218.03
2023-12-24T02:53:40.024Z,100216.38
2023-12-24T02:58:44.958Z,100214.81
2023-12-24T03:03:48.526Z,100218.50
2023-12-24T03:08:53.437Z,100207.16
2023-12-24T03:13:56.960Z,100210.00
2023-12-24T03:19:00.733Z,100210.78
2023-12-24T03:24:07.692Z,100211.66
2023-12-24T03:29:14.524Z,100194.41
2023-12-24T03:34:19.378Z,100194.53
2023-12-24T03:39:24.342Z,100198.06
2023-12-24T03:44:27.843Z,100195.16
2023-12-24T03:49:31.368Z,100187.69
2023-12-24T03:54:36.329Z,100192.84
2023-12-24T03:59:40.677Z,100196.19
2023-12-24T04:04:47.083Z,100191.97
2023-12-24T04:09:51.963Z,100189.22
2023-12-24T04:14:55.138Z,100179.72
2023-12-24T04:19:58.647Z,100166.16
2023-12-24T04:25:03.745Z,100162.66
2023-12-24T04:30:08.548Z,100155.00
2023-12-24T04:35:12.576Z,100150.50
2023-12-24T04:40:17.504Z,100136.06
2023-12-24T04:45:20.949Z,100121.41
2023-12-24T04:50:24.461Z,100129.75
2023-12-24T04:55:29.575Z,100125.69
2023-12-24T05:00:33.265Z,100118.78
2023-12-24T05:05:36.909Z,100111.00
2023-12-24T05:10:42.541Z,100109.25
2023-12-24T05:15:46.011Z,100106.72
2023-12-24T05:20:49.487Z,100097.34
2023-12-24T05:25:54.637Z,100085.97
2023-12-24T05:30:58.127Z,100088.72
2023-12-24T05:36:01.744Z,100087.72
2023-12-24T05:41:10.378Z,100078.91
2023-12-24T05:46:14.903Z,100071.94
2023-12-24T05:51:18.825Z,100063.53
2023-12-24T05:56:23.720Z,100064.44
2023-12-24T06:01:27.399Z,100061.66
2023-12-24T06:06:31.075Z,100050.19
2023-12-24T06:11:36.042Z,100051.94
2023-12-24T06:16:39.514Z,100041.66
2023-12-24T06:21:43.013Z,100033.84
2023-12-24T06:26:47.880Z,100024.56
2023-12-24T06:31:51.367Z,100031.47
2023-12-24T06:36:54.953Z,100033.84
2023-12-24T06:41:59.865Z,100037.75
2023-12-24T06:47:03.514Z,100022.03
2023-12-24T06:52:07.581Z,100014.09
2023-12-24T06:57:12.517Z,100007.97
2023-12-24T07:02:15.986Z,99991.63
2023-12-24T07:07:19.618Z,99993.00
2023-12-24T07:12:24.655Z,99993.84
2023-12-24T07:17:28.366Z,99983.44
2023-12-24T07:22:32.012Z,99989.94
2023-12-24T07:27:36.900Z,99978.22
2023-12-24T07:32:45.137Z,99977.34
2023-12-24T07:37:49.462Z,99961.81
2023-12-24T07:42:54.575Z,99957.38
2023-12-24T07:47:58.361Z,99976.94
2023-12-24T07:53:01.912Z,99946.06
2023-12-24T07:58:06.820Z,99959.25
2023-12-24T08:03:10.401Z,99938.75
2023-12-24T08:08:14.364Z,99933.28
2023-12-24T08:13:19.943Z,99935.97
2023-12-24T08:18:23.907Z,99916.38
2023-12-24T08:23:27.650Z,99912.88
2023-12-24T08:28:32.541Z,99912.44
2023-12-24T08:33:36.083Z,99914.41
2023-12-24T08:38:39.766Z,99907.09
2023-12-24T08:43:44.666Z,99902.41
2023-12-24T08:48:48.321Z,99903.66
2023-12-24T08:53:51.866Z,99897.25
2023-12-24T08:58:56.854Z,99885.09
2023-12-24T09:04:00.495Z,99896.31
2023-12-24T09:09:04.076Z,99891.59
2023-12-24T09:14:09.404Z,99888.00
2023-12-24T09:19:12.941Z,99888.88
2023-12-24T09:24:16.497Z,99887.66
2023-12-24T09:29:23.479Z,99876.31
2023-12-24T09:34:27.051Z,99866.00
2023-12-24T09:39:30.578Z,99865.06
2023-12-24T09:44:36.372Z,99875.31
2023-12-24T09:49:39.817Z,99872.97
2023-12-24T09:54:44.474Z,99858.50
2023-12-24T09:59:49.403Z,99858.50
2023-12-24T10:04:53.017Z,99859.06
2023-12-24T10:09:56.555Z,99861.22
2023-12-24T10:15:01.832Z,99858.34
2023-12-24T10:20:07.420Z,99851.28
2023-12-24T10:25:11.411Z,99850.53
2023-12-24T10:30:17.496Z,99836.94
2023-12-24T10:35:23.888Z,99829.41
2023-12-24T10:40:27.496Z,99825.16
2023-12-24T10:45:32.332Z,99827.31
2023-12-24T10:50:35.838Z,99821.28
2023-12-24T10:55:41.966Z,99802.41
2023-12-24T11:00:47.425Z,99792.16
2023-12-24T11:05:51.748Z,99791.75
2023-12-24T11:10:56.014Z,99782.41
2023-12-24T11:16:01.754Z,99773.06
2023-12-24T11:21:05.677Z,99769.69
2023-12-24T11:26:30.364Z,99762.28
2023-12-24T11:31:35.447Z,99756.56
2023-12-24T11:37:05.421Z,99766.19
2023-12-24T11:42:09.057Z,99759.97
2023-12-24T11:47:20.846Z,99747.63
2023-12-24T11:52:25.182Z,99743.81
2023-12-24T11:57:28.791Z,99729.00
2023-12-24T12:02:33.612Z,99723.63
2023-12-24T12:07:37.313Z,99709.66
2023-12-24T12:12:41.044Z,99712.38
2023-12-24T12:17:46.112Z,99716.53
2023-12-24T12:22:51.730Z,99710.31
2023-12-24T12:27:55.482Z,99717.00
2023-12-24T12:33:00.515Z,99707.78
2023-12-24T12:38:04.351Z,99694.09
2023-12-24T12:43:09.813Z,99694.28
2023-12-24T12:48:14.860Z,99685.50
2023-12-24T12:53:25.270Z,99687.09
2023-12-24T12:58:28.822Z,99697.19
2023-12-24T13:03:36.893Z,99703.41
2023-12-24T13:08:40.824Z,99688.88
2023-12-24T13:13:44.361Z,99686.91
2023-12-24T13:18:49.341Z,99685.06
2023-12-24T13:23:52.988Z,99691.38
2023-12-24T13:28:59.826Z,99677.59
2023-12-24T13:34:04.872Z,99683.47
2023-12-24T13:39:08.584Z,99697.19
2023-12-24T13:44:12.774Z,99688.22
2023-12-24T13:49:18.108Z,99673.50
2023-12-24T13:54:25.197Z,99666.72
2023-12-24T13:59:29.040Z,99655.16
2023-12-24T14:04:34.133Z,99654.97
2023-12-24T14:09:38.493Z,99650.88
2023-12-24T14:14:42.180Z,99653.47
2023-12-24T14:19:48.980Z,99643.97
2023-12-24T14:24:52.569Z,99630.91
2023-12-24T14:29:57.195Z,99649.09
2023-12-24T14:35:02.503Z,99646.66
2023-12-24T14:40:08.035Z,99636.59
2023-12-24T14:45:11.981Z,99619.47
2023-12-24T14:50:17.055Z,99611.06
2023-12-24T14:55:20.620Z,99624.59
2023-12-24T15:00:25.462Z,99611.34
2023-12-24T15:05:30.974Z,99609.41
2023-12-24T15:10:34.871Z,99615.75
2023-12-24T15:15:38.608Z,99600.72
2023-12-24T15:20:43.706Z,99576.50
2023-12-24T15:25:47.826Z,99591.16
2023-12-24T15:30:51.833Z,99583.97
2023-12-24T15:35:56.917Z,99565.16
2023-12-24T15:41:01.071Z,99581.06
2023-12-24T15:46:04.874Z,99561.69
2023-12-24T15:51:09.836Z,99563.75
2023-12-24T15:56:20.652Z,99546.84
2023-12-24T16:01:25.610Z,99570.44
2023-12-24T16:06:33.582Z,99570.34
2023-12-24T16:11:42.530Z,99557.38
2023-12-24T16:16:47.400Z,99572.22
2023-12-24T16:21:52.349Z,99564.47
2023-12-24T16:26:56.160Z,99538.47
2023-12-24T16:31:59.724Z,99546.19
2023-12-24T16:37:05.213Z,99523.81
2023-12-24T16:42:09.122Z,99513.25
2023-12-24T16:47:12.754Z,99510.09
2023-12-24T16:52:17.598Z,99509.78
2023-12-24T16:57:22.190Z,99514.44
2023-12-24T17:02:27.217Z,99514.63
2023-12-24T17:07:32.076Z,99522.00
2023-12-24T17:12:36.711Z,99523.41
2023-12-24T17:17:40.634Z,99529.53
2023-12-24T17:22:45.687Z,99515.72
2023-12-24T17:27:49.839Z,99493.41
2023-12-24T17:32:53.711Z,99489.09
2023-12-24T17:37:58.752Z,99487.41
2023-12-24T17:43:03.056Z,99481.78
2023-12-24T17:48:13.906Z,99476.38
2023-12-24T17:53:25.070Z,99467.50
2023-12-24T17:58:28.644Z,99475.53
2023-12-24T18:03:32.133Z,99443.19
2023-12-24T18:08:37.181Z,99452.25
2023-12-24T18:13:40.781Z,99444.31
2023-12-24T18:18:44.572Z,99433.56
2023-12-24T18:23:49.667Z,99422.41
2023-12-24T18:28:53.547Z,99421.78
2023-12-24T18:33:57.330Z,99402.03
2023-12-24T18:39:02.667Z,99391.38
2023-12-24T18:44:06.546Z,99398.88
2023-12-24T18:49:10.178Z,99407.69
2023-12-24T18:54:15.330Z,99412.38
2023-12-24T18:59:18.816Z,99398.69
2023-12-24T19:04:22.443Z,99396.50
2023-12-24T19:09:27.768Z,99382.31
2023-12-24T19:14:31.425Z,99351.25
2023-12-24T19:19:35.267Z,99352.50
2023-12-24T19:24:40.331Z,99369.75
2023-12-24T19:29:44.136Z,99380.69
2023-12-24T19:34:47.782Z,99402.16
2023-12-24T19:39:52.691Z,99391.59
2023-12-24T19:44:56.320Z,99385.50
2023-12-24T19:49:59.893Z,99391.75
2023-12-24T19:55:05.180Z,99397.41
2023-12-24T20:00:10.755Z,99402.41
2023-12-24T20:05:14.872Z,99404.50
2023-12-24T20:10:20.193Z,99412.53
2023-12-24T20:15:24.236Z,99387.88
2023-12-24T20:20:28.475Z,99383.47
2023-12-24T20:25:33.576Z,99386.09
2023-12-24T20:30:37.577Z,99355.16
2023-12-24T20:35:41.187Z,99350.72
2023-12-24T20:40:46.186Z,99367.34
2023-12-24T20:45:49.652Z,99363.13
2023-12-24T20:50:53.580Z,99352.56
2023-12-24T20:55:59.055Z,99348.88
2023-12-24T21:01:03.093Z,99339.25
2023-12-24T21:06:07.527Z,99337.47
2023-12-24T21:11:13.002Z,99340.25
2023-12-24T21:16:16.983Z,99323.22
2023-12-24T21:21:20.945Z,99325.00
2023-12-24T21:26:26.483Z,99320.59
2023-12-24T21:31:30.157Z,99313.31
2023-12-24T21:36:33.892Z,99311.66
2023-12-24T21:41:42.719Z,99310.22
2023-12-24T21:46:46.560Z,99317.31
2023-12-24T21:51:50.321Z,99317.66
2023-12-24T21:56:55.326Z,99309.22
2023-12-24T22:01:59.157Z,99320.00
2023-12-24T22:07:02.855Z,99323.22
2023-12-24T22:12:09.354Z,99318.00
2023-12-24T22:17:15.061Z,99321.22
2023-12-24T22:22:18.781Z,99341.31
2023-12-24T22:27:23.785Z,99394.31
2023-12-24T22:32:27.645Z,99443.50
2023-12-24T22:37:31.171Z,99431.38
2023-12-24T22:42:36.015Z,99418.31
2023-12-24T22:47:39.565Z,99422.22
2023-12-24T22:52:43.215Z,99413.75
2023-12-24T22:57:48.044Z,99405.69
2023-12-24T23:02:51.570Z,99417.38
2023-12-24T23:07:55.507Z,99432.63
2023-12-24T23:13:00.772Z,99418.94
2023-12-24T23:18:05.311Z,99431.78
2023-12-24T23:23:08.803Z,99443.91
2023-12-24T23:28:13.769Z,99453.63
2023-12-24T23:33:17.396Z,99465.75
2023-12-24T23:38:20.919Z,99472.75
2023-12-24T23:43:25.762Z,99478.50
2023-12-24T23:48:29.358Z,99479.47
2023-12-24T23:53:33.263Z,99483.00
2023-12-24T23:58:38.130Z,99483.00
